sensor_id;sensor_type;location;lat;lon;timestamp;temperature;humidity
43999;DHT22;51319;52.162;5.302;2024-03-06T00:01:57;7.30;99.90
43999;DHT22;51319;52.162;5.302;2024-03-06T00:04:24;7.30;99.90
43999;DHT22;51319;52.162;5.302;2024-03-06T00:06:52;7.30;99.90
43999;DHT22;51319;52.162;5.302;2024-03-06T00:09:20;7.30;99.90
43999;DHT22;51319;52.162;5.302;2024-03-06T00:11:50;7.40;99.90
43999;DHT22;51319;52.162;5.302;2024-03-06T00:14:20;7.30;99.90
43999;DHT22;51319;52.162;5.302;2024-03-06T00:16:49;7.20;99.90
43999;DHT22;51319;52.162;5.302;2024-03-06T00:19:19;7.20;99.90
43999;DHT22;51319;52.162;5.302;2024-03-06T00:21:49;7.20;99.90
43999;DHT22;51319;52.162;5.302;2024-03-06T00:24:16;7.20;99.90
43999;DHT22;51319;52.162;5.302;2024-03-06T00:26:44;7.30;99.90
43999;DHT22;51319;52.162;5.302;2024-03-06T00:29:12;7.30;99.90
43999;DHT22;51319;52.162;5.302;2024-03-06T00:31:43;7.20;99.90
43999;DHT22;51319;52.162;5.302;2024-03-06T00:34:12;7.20;99.90
43999;DHT22;51319;52.162;5.302;2024-03-06T00:36:43;7.30;99.90
43999;DHT22;51319;52.162;5.302;2024-03-06T00:39:11;7.30;99.90
43999;DHT22;51319;52.162;5.302;2024-03-06T00:41:42;7.30;99.90
43999;DHT22;51319;52.162;5.302;2024-03-06T00:44:09;7.30;99.90
43999;DHT22;51319;52.162;5.302;2024-03-06T00:46:38;7.30;99.90
43999;DHT22;51319;52.162;5.302;2024-03-06T00:49:06;7.30;99.90
43999;DHT22;51319;52.162;5.302;2024-03-06T00:51:33;7.30;99.90
43999;DHT22;51319;52.162;5.302;2024-03-06T00:54:14;7.20;99.90
43999;DHT22;51319;52.162;5.302;2024-03-06T00:56:42;7.20;99.90
43999;DHT22;51319;52.162;5.302;2024-03-06T00:59:10;7.20;99.90
43999;DHT22;51319;52.162;5.302;2024-03-06T01:01:38;7.10;99.90
43999;DHT22;51319;52.162;5.302;2024-03-06T01:04:05;7.10;99.90
43999;DHT22;51319;52.162;5.302;2024-03-06T01:06:33;6.90;99.90
43999;DHT22;51319;52.162;5.302;2024-03-06T01:09:00;6.80;99.90
43999;DHT22;51319;52.162;5.302;2024-03-06T01:11:28;6.70;99.90
43999;DHT22;51319;52.162;5.302;2024-03-06T01:13:55;6.60;99.90
43999;DHT22;51319;52.162;5.302;2024-03-06T01:16:22;6.50;99.90
43999;DHT22;51319;52.162;5.302;2024-03-06T01:18:49;6.50;99.90
43999;DHT22;51319;52.162;5.302;2024-03-06T01:21:16;6.50;99.90
43999;DHT22;51319;52.162;5.302;2024-03-06T01:23:44;6.60;99.90
43999;DHT22;51319;52.162;5.302;2024-03-06T01:26:11;6.60;99.90
43999;DHT22;51319;52.162;5.302;2024-03-06T01:28:40;6.70;99.90
43999;DHT22;51319;52.162;5.302;2024-03-06T01:31:09;6.70;99.90
43999;DHT22;51319;52.162;5.302;2024-03-06T01:33:37;6.70;99.90
43999;DHT22;51319;52.162;5.302;2024-03-06T01:36:05;6.70;99.90
43999;DHT22;51319;52.162;5.302;2024-03-06T01:38:33;6.70;99.90
43999;DHT22;51319;52.162;5.302;2024-03-06T01:41:01;6.60;99.90
43999;DHT22;51319;52.162;5.302;2024-03-06T01:43:28;6.60;99.90
43999;DHT22;51319;52.162;5.302;2024-03-06T01:45:55;6.60;99.90
43999;DHT22;51319;52.162;5.302;2024-03-06T01:48:28;6.60;99.90
43999;DHT22;51319;52.162;5.302;2024-03-06T01:50:58;6.60;99.90
43999;DHT22;51319;52.162;5.302;2024-03-06T01:53:28;6.60;99.90
43999;DHT22;51319;52.162;5.302;2024-03-06T01:55:57;6.60;99.90
43999;DHT22;51319;52.162;5.302;2024-03-06T01:58:25;6.50;99.90
43999;DHT22;51319;52.162;5.302;2024-03-06T02:03:21;6.40;99.90
43999;DHT22;51319;52.162;5.302;2024-03-06T02:05:51;6.30;99.90
43999;DHT22;51319;52.162;5.302;2024-03-06T02:08:19;6.30;99.90
43999;DHT22;51319;52.162;5.302;2024-03-06T02:10:46;6.20;99.90
43999;DHT22;51319;52.162;5.302;2024-03-06T02:13:14;6.20;99.90
43999;DHT22;51319;52.162;5.302;2024-03-06T02:15:44;6.20;99.90
43999;DHT22;51319;52.162;5.302;2024-03-06T02:18:11;6.10;99.90
43999;DHT22;51319;52.162;5.302;2024-03-06T02:20:38;6.10;99.90
43999;DHT22;51319;52.162;5.302;2024-03-06T02:23:07;6.10;99.90
43999;DHT22;51319;52.162;5.302;2024-03-06T02:25:35;6.10;99.90
43999;DHT22;51319;52.162;5.302;2024-03-06T02:28:02;6.10;99.90
43999;DHT22;51319;52.162;5.302;2024-03-06T02:30:30;6.20;99.90
43999;DHT22;51319;52.162;5.302;2024-03-06T02:33:03;6.20;99.90
43999;DHT22;51319;52.162;5.302;2024-03-06T02:35:31;6.20;99.90
43999;DHT22;51319;52.162;5.302;2024-03-06T02:37:59;6.20;99.90
43999;DHT22;51319;52.162;5.302;2024-03-06T02:40:26;6.20;99.90
43999;DHT22;51319;52.162;5.302;2024-03-06T02:42:53;6.20;99.90
43999;DHT22;51319;52.162;5.302;2024-03-06T02:45:24;6.20;99.90
43999;DHT22;51319;52.162;5.302;2024-03-06T02:47:53;6.20;99.90
43999;DHT22;51319;52.162;5.302;2024-03-06T02:50:21;6.20;99.90
43999;DHT22;51319;52.162;5.302;2024-03-06T02:52:50;6.30;99.90
43999;DHT22;51319;52.162;5.302;2024-03-06T02:55:18;6.30;99.90
43999;DHT22;51319;52.162;5.302;2024-03-06T02:57:46;6.30;99.90
43999;DHT22;51319;52.162;5.302;2024-03-06T03:00:28;6.30;99.90
43999;DHT22;51319;52.162;5.302;2024-03-06T03:02:56;6.30;99.90
43999;DHT22;51319;52.162;5.302;2024-03-06T03:05:23;6.30;99.90
43999;DHT22;51319;52.162;5.302;2024-03-06T03:07:51;6.30;99.90
43999;DHT22;51319;52.162;5.302;2024-03-06T03:10:20;6.30;99.90
43999;DHT22;51319;52.162;5.302;2024-03-06T03:12:47;6.30;99.90
43999;DHT22;51319;52.162;5.302;2024-03-06T03:15:14;6.30;99.90
43999;DHT22;51319;52.162;5.302;2024-03-06T03:17:41;6.30;99.90
43999;DHT22;51319;52.162;5.302;2024-03-06T03:20:09;6.40;99.90
43999;DHT22;51319;52.162;5.302;2024-03-06T03:22:38;6.40;99.90
43999;DHT22;51319;52.162;5.302;2024-03-06T03:25:13;6.40;99.90
43999;DHT22;51319;52.162;5.302;2024-03-06T03:27:40;6.30;99.90
43999;DHT22;51319;52.162;5.302;2024-03-06T03:30:08;6.30;99.90
43999;DHT22;51319;52.162;5.302;2024-03-06T03:32:36;6.30;99.90
43999;DHT22;51319;52.162;5.302;2024-03-06T03:35:05;6.30;99.90
43999;DHT22;51319;52.162;5.302;2024-03-06T03:37:32;6.30;99.90
43999;DHT22;51319;52.162;5.302;2024-03-06T03:40:00;6.40;99.90
43999;DHT22;51319;52.162;5.302;2024-03-06T03:42:27;6.40;99.90
43999;DHT22;51319;52.162;5.302;2024-03-06T03:44:54;6.40;99.90
43999;DHT22;51319;52.162;5.302;2024-03-06T03:47:22;6.40;99.90
43999;DHT22;51319;52.162;5.302;2024-03-06T03:49:49;6.40;99.90
43999;DHT22;51319;52.162;5.302;2024-03-06T03:52:32;6.30;99.90
43999;DHT22;51319;52.162;5.302;2024-03-06T03:55:02;6.30;99.90
43999;DHT22;51319;52.162;5.302;2024-03-06T03:57:30;6.30;99.90
43999;DHT22;51319;52.162;5.302;2024-03-06T03:59:57;6.20;99.90
43999;DHT22;51319;52.162;5.302;2024-03-06T04:02:25;6.20;99.90
43999;DHT22;51319;52.162;5.302;2024-03-06T04:04:53;6.10;99.90
43999;DHT22;51319;52.162;5.302;2024-03-06T04:07:20;6.10;99.90
43999;DHT22;51319;52.162;5.302;2024-03-06T04:09:47;6.00;99.90
43999;DHT22;51319;52.162;5.302;2024-03-06T04:12:14;6.00;99.90
43999;DHT22;51319;52.162;5.302;2024-03-06T04:14:42;5.90;99.90
43999;DHT22;51319;52.162;5.302;2024-03-06T04:17:10;5.90;99.90
43999;DHT22;51319;52.162;5.302;2024-03-06T04:19:37;5.90;99.90
43999;DHT22;51319;52.162;5.302;2024-03-06T04:22:05;5.90;99.90
43999;DHT22;51319;52.162;5.302;2024-03-06T04:24:32;5.90;99.90
43999;DHT22;51319;52.162;5.302;2024-03-06T04:26:59;5.80;99.90
43999;DHT22;51319;52.162;5.302;2024-03-06T04:29:26;5.80;99.90
43999;DHT22;51319;52.162;5.302;2024-03-06T04:31:53;5.80;99.90
43999;DHT22;51319;52.162;5.302;2024-03-06T04:34:20;5.80;99.90
43999;DHT22;51319;52.162;5.302;2024-03-06T04:36:47;5.80;99.90
43999;DHT22;51319;52.162;5.302;2024-03-06T04:39:14;5.80;99.90
43999;DHT22;51319;52.162;5.302;2024-03-06T04:41:41;5.80;99.90
43999;DHT22;51319;52.162;5.302;2024-03-06T04:44:08;5.70;99.90
43999;DHT22;51319;52.162;5.302;2024-03-06T04:46:35;5.70;99.90
43999;DHT22;51319;52.162;5.302;2024-03-06T04:49:03;5.60;99.90
43999;DHT22;51319;52.162;5.302;2024-03-06T04:51:30;5.50;99.90
43999;DHT22;51319;52.162;5.302;2024-03-06T04:53:57;5.40;99.90
43999;DHT22;51319;52.162;5.302;2024-03-06T04:56:23;5.40;99.90
43999;DHT22;51319;52.162;5.302;2024-03-06T04:58:51;5.30;99.90
43999;DHT22;51319;52.162;5.302;2024-03-06T05:01:19;5.20;99.90
43999;DHT22;51319;52.162;5.302;2024-03-06T05:03:46;5.20;99.90
43999;DHT22;51319;52.162;5.302;2024-03-06T05:06:30;5.10;99.90
43999;DHT22;51319;52.162;5.302;2024-03-06T05:09:15;5.10;99.90
43999;DHT22;51319;52.162;5.302;2024-03-06T05:11:59;5.00;99.90
43999;DHT22;51319;52.162;5.302;2024-03-06T05:14:43;4.90;99.90
43999;DHT22;51319;52.162;5.302;2024-03-06T05:17:27;4.80;99.90
43999;DHT22;51319;52.162;5.302;2024-03-06T05:20:12;4.80;99.90
43999;DHT22;51319;52.162;5.302;2024-03-06T05:22:56;4.70;99.90
43999;DHT22;51319;52.162;5.302;2024-03-06T05:25:41;4.60;99.90
43999;DHT22;51319;52.162;5.302;2024-03-06T05:28:25;4.60;99.90
43999;DHT22;51319;52.162;5.302;2024-03-06T05:31:17;4.50;99.90
43999;DHT22;51319;52.162;5.302;2024-03-06T05:34:05;4.50;99.90
43999;DHT22;51319;52.162;5.302;2024-03-06T05:36:50;4.50;99.90
43999;DHT22;51319;52.162;5.302;2024-03-06T05:39:34;4.40;99.90
43999;DHT22;51319;52.162;5.302;2024-03-06T05:42:19;4.40;99.90
43999;DHT22;51319;52.162;5.302;2024-03-06T05:45:03;4.30;99.90
43999;DHT22;51319;52.162;5.302;2024-03-06T05:47:54;4.30;99.90
43999;DHT22;51319;52.162;5.302;2024-03-06T05:50:39;4.30;99.90
43999;DHT22;51319;52.162;5.302;2024-03-06T05:53:23;4.30;99.90
43999;DHT22;51319;52.162;5.302;2024-03-06T05:56:08;4.20;99.90
43999;DHT22;51319;52.162;5.302;2024-03-06T05:58:53;4.20;99.90
43999;DHT22;51319;52.162;5.302;2024-03-06T06:01:21;4.20;99.90
43999;DHT22;51319;52.162;5.302;2024-03-06T06:03:49;4.20;99.90
43999;DHT22;51319;52.162;5.302;2024-03-06T06:06:17;4.20;99.90
43999;DHT22;51319;52.162;5.302;2024-03-06T06:08:44;4.20;99.90
43999;DHT22;51319;52.162;5.302;2024-03-06T06:11:12;4.20;99.90
43999;DHT22;51319;52.162;5.302;2024-03-06T06:13:39;4.30;99.90
43999;DHT22;51319;52.162;5.302;2024-03-06T06:16:06;4.30;99.90
43999;DHT22;51319;52.162;5.302;2024-03-06T06:18:33;4.30;99.90
43999;DHT22;51319;52.162;5.302;2024-03-06T06:21:02;4.40;99.90
43999;DHT22;51319;52.162;5.302;2024-03-06T06:23:34;4.40;99.90
43999;DHT22;51319;52.162;5.302;2024-03-06T06:26:01;4.40;99.90
43999;DHT22;51319;52.162;5.302;2024-03-06T06:28:28;4.40;99.90
43999;DHT22;51319;52.162;5.302;2024-03-06T06:30:58;4.40;99.90
43999;DHT22;51319;52.162;5.302;2024-03-06T06:33:25;4.50;99.90
43999;DHT22;51319;52.162;5.302;2024-03-06T06:35:53;4.60;99.90
43999;DHT22;51319;52.162;5.302;2024-03-06T06:38:21;4.60;99.90
43999;DHT22;51319;52.162;5.302;2024-03-06T06:40:48;4.60;99.90
43999;DHT22;51319;52.162;5.302;2024-03-06T06:43:19;4.70;99.90
43999;DHT22;51319;52.162;5.302;2024-03-06T06:45:48;4.80;99.90
43999;DHT22;51319;52.162;5.302;2024-03-06T06:48:20;4.80;99.90
43999;DHT22;51319;52.162;5.302;2024-03-06T06:50:47;4.90;99.90
43999;DHT22;51319;52.162;5.302;2024-03-06T06:53:15;5.00;99.90
43999;DHT22;51319;52.162;5.302;2024-03-06T06:55:42;5.10;99.90
43999;DHT22;51319;52.162;5.302;2024-03-06T06:58:09;5.20;99.90
43999;DHT22;51319;52.162;5.302;2024-03-06T07:00:37;5.20;99.90
43999;DHT22;51319;52.162;5.302;2024-03-06T07:03:04;5.30;99.90
43999;DHT22;51319;52.162;5.302;2024-03-06T07:05:31;5.30;99.90
43999;DHT22;51319;52.162;5.302;2024-03-06T07:07:58;5.40;99.90
43999;DHT22;51319;52.162;5.302;2024-03-06T07:10:26;5.40;99.90
43999;DHT22;51319;52.162;5.302;2024-03-06T07:12:54;5.50;99.90
43999;DHT22;51319;52.162;5.302;2024-03-06T07:15:21;5.50;99.90
43999;DHT22;51319;52.162;5.302;2024-03-06T07:17:48;5.50;99.90
43999;DHT22;51319;52.162;5.302;2024-03-06T07:20:15;5.60;99.90
43999;DHT22;51319;52.162;5.302;2024-03-06T07:22:50;5.70;99.90
43999;DHT22;51319;52.162;5.302;2024-03-06T07:25:17;5.80;99.90
43999;DHT22;51319;52.162;5.302;2024-03-06T07:27:44;5.80;99.90
43999;DHT22;51319;52.162;5.302;2024-03-06T07:30:12;5.80;99.90
43999;DHT22;51319;52.162;5.302;2024-03-06T07:32:40;5.90;99.90
43999;DHT22;51319;52.162;5.302;2024-03-06T07:35:07;5.90;99.90
43999;DHT22;51319;52.162;5.302;2024-03-06T07:37:35;6.00;99.90
43999;DHT22;51319;52.162;5.302;2024-03-06T07:40:02;6.00;99.90
43999;DHT22;51319;52.162;5.302;2024-03-06T07:42:31;6.10;99.90
43999;DHT22;51319;52.162;5.302;2024-03-06T07:45:00;6.20;99.90
43999;DHT22;51319;52.162;5.302;2024-03-06T07:47:27;6.30;99.90
43999;DHT22;51319;52.162;5.302;2024-03-06T07:49:54;6.40;99.90
43999;DHT22;51319;52.162;5.302;2024-03-06T07:52:22;6.40;99.90
43999;DHT22;51319;52.162;5.302;2024-03-06T07:54:50;6.50;99.90
43999;DHT22;51319;52.162;5.302;2024-03-06T07:57:17;6.60;99.90
43999;DHT22;51319;52.162;5.302;2024-03-06T07:59:44;6.70;99.90
43999;DHT22;51319;52.162;5.302;2024-03-06T08:02:11;6.80;99.90
43999;DHT22;51319;52.162;5.302;2024-03-06T08:12:45;7.20;99.90
43999;DHT22;51319;52.162;5.302;2024-03-06T08:15:15;7.30;99.90
43999;DHT22;51319;52.162;5.302;2024-03-06T08:17:43;7.40;99.90
43999;DHT22;51319;52.162;5.302;2024-03-06T08:20:11;7.40;99.90
43999;DHT22;51319;52.162;5.302;2024-03-06T08:22:39;7.50;99.90
43999;DHT22;51319;52.162;5.302;2024-03-06T08:25:07;7.60;99.90
43999;DHT22;51319;52.162;5.302;2024-03-06T08:27:36;7.70;99.90
43999;DHT22;51319;52.162;5.302;2024-03-06T08:30:04;7.90;99.90
43999;DHT22;51319;52.162;5.302;2024-03-06T08:32:32;8.00;99.90
43999;DHT22;51319;52.162;5.302;2024-03-06T08:35:08;8.10;99.90
43999;DHT22;51319;52.162;5.302;2024-03-06T08:37:42;8.20;99.90
43999;DHT22;51319;52.162;5.302;2024-03-06T08:40:10;8.20;99.90
43999;DHT22;51319;52.162;5.302;2024-03-06T08:42:42;8.20;99.90
43999;DHT22;51319;52.162;5.302;2024-03-06T08:45:09;8.40;99.90
43999;DHT22;51319;52.162;5.302;2024-03-06T08:47:37;8.50;99.90
43999;DHT22;51319;52.162;5.302;2024-03-06T08:50:05;8.50;99.90
43999;DHT22;51319;52.162;5.302;2024-03-06T08:52:34;8.60;99.90
43999;DHT22;51319;52.162;5.302;2024-03-06T08:55:03;8.80;99.90
43999;DHT22;51319;52.162;5.302;2024-03-06T08:57:34;8.90;99.90
43999;DHT22;51319;52.162;5.302;2024-03-06T09:00:02;9.10;99.90
43999;DHT22;51319;52.162;5.302;2024-03-06T09:02:30;9.20;99.90
43999;DHT22;51319;52.162;5.302;2024-03-06T09:04:57;9.40;99.90
43999;DHT22;51319;52.162;5.302;2024-03-06T09:07:25;9.50;99.90
43999;DHT22;51319;52.162;5.302;2024-03-06T09:09:53;9.60;99.90
43999;DHT22;51319;52.162;5.302;2024-03-06T09:12:20;9.60;99.90
43999;DHT22;51319;52.162;5.302;2024-03-06T09:14:47;9.50;99.90
43999;DHT22;51319;52.162;5.302;2024-03-06T09:17:14;9.50;99.90
43999;DHT22;51319;52.162;5.302;2024-03-06T09:19:42;9.50;99.90
43999;DHT22;51319;52.162;5.302;2024-03-06T09:22:29;9.60;99.90
43999;DHT22;51319;52.162;5.302;2024-03-06T09:24:55;9.60;99.90
43999;DHT22;51319;52.162;5.302;2024-03-06T09:27:23;9.70;99.90
43999;DHT22;51319;52.162;5.302;2024-03-06T09:29:51;9.80;99.90
43999;DHT22;51319;52.162;5.302;2024-03-06T09:59:35;11.60;95.80
43999;DHT22;51319;52.162;5.302;2024-03-06T10:02:18;12.10;95.60
43999;DHT22;51319;52.162;5.302;2024-03-06T10:10:16;16.20;91.60
43999;DHT22;51319;52.162;5.302;2024-03-06T10:15:19;19.10;77.00
43999;DHT22;51319;52.162;5.302;2024-03-06T10:17:48;20.00;69.30
43999;DHT22;51319;52.162;5.302;2024-03-06T10:20:19;21.10;64.90
43999;DHT22;51319;52.162;5.302;2024-03-06T10:22:52;22.00;60.40
43999;DHT22;51319;52.162;5.302;2024-03-06T10:25:25;22.80;58.50
43999;DHT22;51319;52.162;5.302;2024-03-06T10:36:10;22.60;52.40
43999;DHT22;51319;52.162;5.302;2024-03-06T10:38:39;22.50;54.40
43999;DHT22;51319;52.162;5.302;2024-03-06T10:41:08;23.40;51.90
43999;DHT22;51319;52.162;5.302;2024-03-06T11:15:18;28.20;41.60
43999;DHT22;51319;52.162;5.302;2024-03-06T11:17:47;28.50;41.30
43999;DHT22;51319;52.162;5.302;2024-03-06T11:47:22;29.70;37.50
43999;DHT22;51319;52.162;5.302;2024-03-06T11:49:53;28.50;37.50
43999;DHT22;51319;52.162;5.302;2024-03-06T11:52:21;28.10;38.80
43999;DHT22;51319;52.162;5.302;2024-03-06T11:54:48;28.80;39.00
43999;DHT22;51319;52.162;5.302;2024-03-06T12:24:21;26.00;42.10
43999;DHT22;51319;52.162;5.302;2024-03-06T12:27:01;27.30;41.00
43999;DHT22;51319;52.162;5.302;2024-03-06T12:29:31;28.40;38.70
43999;DHT22;51319;52.162;5.302;2024-03-06T12:32:00;28.90;37.80
43999;DHT22;51319;52.162;5.302;2024-03-06T12:34:27;29.30;37.00
43999;DHT22;51319;52.162;5.302;2024-03-06T12:37:21;29.60;36.90
43999;DHT22;51319;52.162;5.302;2024-03-06T12:39:55;30.10;36.90
43999;DHT22;51319;52.162;5.302;2024-03-06T12:42:23;30.50;36.20
43999;DHT22;51319;52.162;5.302;2024-03-06T12:44:54;30.70;35.90
43999;DHT22;51319;52.162;5.302;2024-03-06T12:47:22;30.70;35.70
43999;DHT22;51319;52.162;5.302;2024-03-06T12:52:17;28.40;35.10
43999;DHT22;51319;52.162;5.302;2024-03-06T12:54:45;26.50;36.90
43999;DHT22;51319;52.162;5.302;2024-03-06T12:57:12;25.00;38.40
43999;DHT22;51319;52.162;5.302;2024-03-06T12:59:41;24.40;40.50
43999;DHT22;51319;52.162;5.302;2024-03-06T13:02:09;24.40;40.30
43999;DHT22;51319;52.162;5.302;2024-03-06T13:04:36;23.90;41.10
43999;DHT22;51319;52.162;5.302;2024-03-06T13:07:04;23.60;41.00
43999;DHT22;51319;52.162;5.302;2024-03-06T13:09:32;22.70;41.50
43999;DHT22;51319;52.162;5.302;2024-03-06T13:11:59;21.60;42.80
43999;DHT22;51319;52.162;5.302;2024-03-06T13:14:28;20.90;44.20
43999;DHT22;51319;52.162;5.302;2024-03-06T13:16:55;20.20;44.50
43999;DHT22;51319;52.162;5.302;2024-03-06T13:19:22;19.40;45.50
43999;DHT22;51319;52.162;5.302;2024-03-06T13:21:50;18.90;46.90
43999;DHT22;51319;52.162;5.302;2024-03-06T13:24:17;18.50;48.60
43999;DHT22;51319;52.162;5.302;2024-03-06T13:26:47;18.10;49.50
43999;DHT22;51319;52.162;5.302;2024-03-06T13:29:14;17.80;49.10
43999;DHT22;51319;52.162;5.302;2024-03-06T13:31:41;17.50;49.60
43999;DHT22;51319;52.162;5.302;2024-03-06T13:34:08;17.10;50.40
43999;DHT22;51319;52.162;5.302;2024-03-06T13:36:35;16.80;51.50
43999;DHT22;51319;52.162;5.302;2024-03-06T13:39:03;16.60;52.20
43999;DHT22;51319;52.162;5.302;2024-03-06T13:41:33;16.40;52.80
43999;DHT22;51319;52.162;5.302;2024-03-06T13:44:00;16.20;53.40
43999;DHT22;51319;52.162;5.302;2024-03-06T13:49:38;15.90;54.00
43999;DHT22;51319;52.162;5.302;2024-03-06T13:52:08;15.70;54.90
43999;DHT22;51319;52.162;5.302;2024-03-06T13:54:41;15.60;55.00
43999;DHT22;51319;52.162;5.302;2024-03-06T13:57:09;15.50;55.90
43999;DHT22;51319;52.162;5.302;2024-03-06T13:59:38;15.40;55.40
43999;DHT22;51319;52.162;5.302;2024-03-06T14:02:06;15.30;56.10
43999;DHT22;51319;52.162;5.302;2024-03-06T14:04:33;15.30;56.60
43999;DHT22;51319;52.162;5.302;2024-03-06T14:07:02;15.20;56.90
43999;DHT22;51319;52.162;5.302;2024-03-06T14:09:29;15.20;57.00
43999;DHT22;51319;52.162;5.302;2024-03-06T14:11:57;15.00;57.40
43999;DHT22;51319;52.162;5.302;2024-03-06T14:14:26;15.00;57.70
43999;DHT22;51319;52.162;5.302;2024-03-06T14:16:53;14.90;58.00
43999;DHT22;51319;52.162;5.302;2024-03-06T14:19:22;14.90;58.50
43999;DHT22;51319;52.162;5.302;2024-03-06T14:21:52;14.80;58.80
43999;DHT22;51319;52.162;5.302;2024-03-06T14:24:19;14.80;58.80
43999;DHT22;51319;52.162;5.302;2024-03-06T14:26:47;14.80;58.90
43999;DHT22;51319;52.162;5.302;2024-03-06T14:29:15;14.70;59.00
43999;DHT22;51319;52.162;5.302;2024-03-06T14:31:43;14.70;59.20
43999;DHT22;51319;52.162;5.302;2024-03-06T14:34:10;14.60;59.50
43999;DHT22;51319;52.162;5.302;2024-03-06T14:36:37;14.60;59.60
43999;DHT22;51319;52.162;5.302;2024-03-06T14:39:05;14.60;59.80
43999;DHT22;51319;52.162;5.302;2024-03-06T14:41:33;14.50;59.80
43999;DHT22;51319;52.162;5.302;2024-03-06T14:44:00;14.50;60.00
43999;DHT22;51319;52.162;5.302;2024-03-06T14:46:28;14.50;60.00
43999;DHT22;51319;52.162;5.302;2024-03-06T14:48:56;14.50;60.20
43999;DHT22;51319;52.162;5.302;2024-03-06T14:51:23;14.50;60.40
43999;DHT22;51319;52.162;5.302;2024-03-06T14:53:50;14.50;60.50
43999;DHT22;51319;52.162;5.302;2024-03-06T14:56:17;14.50;60.60
43999;DHT22;51319;52.162;5.302;2024-03-06T14:58:45;14.40;60.90
43999;DHT22;51319;52.162;5.302;2024-03-06T15:01:12;14.40;61.20
43999;DHT22;51319;52.162;5.302;2024-03-06T15:03:39;14.40;61.60
43999;DHT22;51319;52.162;5.302;2024-03-06T15:06:07;14.40;61.80
43999;DHT22;51319;52.162;5.302;2024-03-06T15:08:34;14.40;61.80
43999;DHT22;51319;52.162;5.302;2024-03-06T15:11:03;14.40;61.80
43999;DHT22;51319;52.162;5.302;2024-03-06T15:13:30;14.40;62.10
43999;DHT22;51319;52.162;5.302;2024-03-06T15:15:57;14.30;61.90
43999;DHT22;51319;52.162;5.302;2024-03-06T15:18:24;14.30;62.00
43999;DHT22;51319;52.162;5.302;2024-03-06T15:20:52;14.30;62.90
43999;DHT22;51319;52.162;5.302;2024-03-06T15:23:19;14.30;62.30
43999;DHT22;51319;52.162;5.302;2024-03-06T15:25:47;14.30;62.20
43999;DHT22;51319;52.162;5.302;2024-03-06T15:28:15;14.30;62.40
43999;DHT22;51319;52.162;5.302;2024-03-06T15:30:42;14.20;62.50
43999;DHT22;51319;52.162;5.302;2024-03-06T15:33:11;14.20;62.60
43999;DHT22;51319;52.162;5.302;2024-03-06T15:35:38;14.10;62.40
43999;DHT22;51319;52.162;5.302;2024-03-06T15:38:05;14.10;62.50
43999;DHT22;51319;52.162;5.302;2024-03-06T15:40:33;14.10;62.70
43999;DHT22;51319;52.162;5.302;2024-03-06T15:42:59;14.10;63.00
43999;DHT22;51319;52.162;5.302;2024-03-06T15:45:30;14.00;63.10
43999;DHT22;51319;52.162;5.302;2024-03-06T15:47:57;13.80;63.00
43999;DHT22;51319;52.162;5.302;2024-03-06T15:50:24;13.70;63.40
43999;DHT22;51319;52.162;5.302;2024-03-06T15:52:51;13.50;63.30
43999;DHT22;51319;52.162;5.302;2024-03-06T15:55:18;13.40;63.70
43999;DHT22;51319;52.162;5.302;2024-03-06T15:57:46;13.20;64.00
43999;DHT22;51319;52.162;5.302;2024-03-06T16:00:13;13.20;64.60
43999;DHT22;51319;52.162;5.302;2024-03-06T16:02:44;13.10;64.60
43999;DHT22;51319;52.162;5.302;2024-03-06T16:05:11;13.00;64.80
43999;DHT22;51319;52.162;5.302;2024-03-06T16:07:38;12.90;65.00
43999;DHT22;51319;52.162;5.302;2024-03-06T16:10:17;12.80;65.40
43999;DHT22;51319;52.162;5.302;2024-03-06T16:12:44;12.60;66.10
43999;DHT22;51319;52.162;5.302;2024-03-06T16:15:11;12.50;67.00
43999;DHT22;51319;52.162;5.302;2024-03-06T16:17:38;12.40;67.60
43999;DHT22;51319;52.162;5.302;2024-03-06T16:22:43;12.20;69.10
43999;DHT22;51319;52.162;5.302;2024-03-06T16:25:10;12.10;70.20
43999;DHT22;51319;52.162;5.302;2024-03-06T16:27:37;12.10;70.90
43999;DHT22;51319;52.162;5.302;2024-03-06T16:30:05;12.00;71.20
43999;DHT22;51319;52.162;5.302;2024-03-06T16:32:35;12.00;71.70
43999;DHT22;51319;52.162;5.302;2024-03-06T16:35:02;11.80;72.00
43999;DHT22;51319;52.162;5.302;2024-03-06T16:37:31;11.80;73.20
43999;DHT22;51319;52.162;5.302;2024-03-06T16:39:58;11.70;73.00
43999;DHT22;51319;52.162;5.302;2024-03-06T16:42:25;11.60;73.40
43999;DHT22;51319;52.162;5.302;2024-03-06T16:44:52;11.50;73.90
43999;DHT22;51319;52.162;5.302;2024-03-06T16:47:19;11.40;74.40
43999;DHT22;51319;52.162;5.302;2024-03-06T16:49:46;11.40;75.00
43999;DHT22;51319;52.162;5.302;2024-03-06T16:52:13;11.30;75.50
43999;DHT22;51319;52.162;5.302;2024-03-06T16:54:40;11.20;76.00
43999;DHT22;51319;52.162;5.302;2024-03-06T16:57:08;11.20;76.50
43999;DHT22;51319;52.162;5.302;2024-03-06T16:59:38;11.10;76.90
43999;DHT22;51319;52.162;5.302;2024-03-06T17:02:05;11.00;77.30
43999;DHT22;51319;52.162;5.302;2024-03-06T17:04:32;11.00;77.90
43999;DHT22;51319;52.162;5.302;2024-03-06T17:06:59;11.00;78.30
43999;DHT22;51319;52.162;5.302;2024-03-06T17:09:28;10.90;78.70
43999;DHT22;51319;52.162;5.302;2024-03-06T17:11:55;10.90;79.10
43999;DHT22;51319;52.162;5.302;2024-03-06T17:14:23;10.90;79.30
43999;DHT22;51319;52.162;5.302;2024-03-06T17:16:49;10.80;79.50
43999;DHT22;51319;52.162;5.302;2024-03-06T17:19:17;10.80;79.90
43999;DHT22;51319;52.162;5.302;2024-03-06T17:21:43;10.70;80.10
43999;DHT22;51319;52.162;5.302;2024-03-06T17:24:12;10.70;80.60
43999;DHT22;51319;52.162;5.302;2024-03-06T17:26:39;10.60;80.90
43999;DHT22;51319;52.162;5.302;2024-03-06T17:29:07;10.60;81.20
43999;DHT22;51319;52.162;5.302;2024-03-06T17:31:34;10.50;81.40
43999;DHT22;51319;52.162;5.302;2024-03-06T17:34:04;10.40;81.60
43999;DHT22;51319;52.162;5.302;2024-03-06T17:36:33;10.40;82.00
43999;DHT22;51319;52.162;5.302;2024-03-06T17:39:04;10.30;82.20
43999;DHT22;51319;52.162;5.302;2024-03-06T17:41:32;10.20;82.30
43999;DHT22;51319;52.162;5.302;2024-03-06T17:44:01;10.10;82.60
43999;DHT22;51319;52.162;5.302;2024-03-06T17:46:30;10.00;82.80
43999;DHT22;51319;52.162;5.302;2024-03-06T17:49:04;10.00;83.10
43999;DHT22;51319;52.162;5.302;2024-03-06T17:51:34;9.90;83.30
43999;DHT22;51319;52.162;5.302;2024-03-06T17:54:09;9.80;83.60
43999;DHT22;51319;52.162;5.302;2024-03-06T17:56:43;9.70;83.90
43999;DHT22;51319;52.162;5.302;2024-03-06T17:59:13;9.70;84.20
43999;DHT22;51319;52.162;5.302;2024-03-06T18:01:40;9.60;84.40
43999;DHT22;51319;52.162;5.302;2024-03-06T18:04:10;9.50;84.60
43999;DHT22;51319;52.162;5.302;2024-03-06T18:06:39;9.40;85.10
43999;DHT22;51319;52.162;5.302;2024-03-06T18:09:07;9.40;85.50
43999;DHT22;51319;52.162;5.302;2024-03-06T18:11:42;9.30;85.70
43999;DHT22;51319;52.162;5.302;2024-03-06T18:14:12;9.20;86.00
43999;DHT22;51319;52.162;5.302;2024-03-06T18:16:44;9.20;86.30
43999;DHT22;51319;52.162;5.302;2024-03-06T18:19:13;9.10;86.50
43999;DHT22;51319;52.162;5.302;2024-03-06T18:21:45;9.10;86.90